createdAt,value
2019-03-21T00:00:09.392Z,99.900002
2019-03-21T00:05:11.593Z,99.900002
2019-03-21T00:10:13.879Z,99.900002
2019-03-21T00:15:16.098Z,99.900002
2019-03-21T00:20:18.484Z,99.900002
2019-03-21T00:25:20.767Z,99.900002
2019-03-21T00:30:23.127Z,99.900002
2019-03-21T00:35:26.281Z,99.900002
2019-03-21T00:40:27.589Z,99.900002
2019-03-21T00:45:31.340Z,99.900002
2019-03-21T00:50:32.223Z,99.900002
2019-03-21T00:55:34.492Z,99.900002
2019-03-21T01:00:36.839Z,99.900002
2019-03-21T01:05:39.066Z,99.900002
2019-03-21T01:10:41.379Z,99.900002
2019-03-21T01:15:43.631Z,99.900002
2019-03-21T01:20:45.996Z,99.900002
2019-03-21T01:25:48.369Z,99.900002
2019-03-21T01:30:50.698Z,99.900002
2019-03-21T01:35:52.795Z,99.900002
2019-03-21T01:40:55.304Z,99.900002
2019-03-21T01:45:57.453Z,99.900002
2019-03-21T01:50:59.674Z,99.900002
2019-03-21T01:56:02.204Z,99.900002
2019-03-21T02:01:04.418Z,99.900002
2019-03-21T02:06:06.708Z,99.900002
2019-03-21T02:11:11.243Z,99.900002
2019-03-21T02:16:12.320Z,99.900002
2019-03-21T02:21:13.544Z,99.900002
2019-03-21T02:26:15.917Z,99.900002
2019-03-21T02:31:18.068Z,99.900002
2019-03-21T02:36:20.422Z,99.900002
2019-03-21T02:41:25.399Z,99.900002
2019-03-21T03:02:10.265Z,99.900002
2019-03-21T03:07:12.493Z,99.900002
2019-03-21T03:12:14.811Z,99.900002
2019-03-21T03:17:17.079Z,99.900002
2019-03-21T03:22:19.493Z,99.900002
2019-03-21T03:27:21.721Z,99.900002
2019-03-21T03:32:24.001Z,99.900002
2019-03-21T03:37:26.298Z,99.900002
2019-03-21T03:42:28.611Z,99.900002
2019-03-21T03:47:30.827Z,99.900002
2019-03-21T03:52:33.216Z,99.900002
2019-03-21T03:57:35.597Z,99.900002
2019-03-21T04:02:37.733Z,99.900002
2019-03-21T04:07:40.121Z,99.900002
2019-03-21T04:12:42.609Z,99.900002
2019-03-21T04:17:44.570Z,99.900002
2019-03-21T04:22:46.929Z,99.900002
2019-03-21T04:27:49.297Z,99.900002
2019-03-21T04:32:52.708Z,99.900002
2019-03-21T04:37:53.868Z,99.900002
2019-03-21T04:42:56.073Z,99.900002
2019-03-21T04:47:58.532Z,99.900002
2019-03-21T04:53:00.698Z,99.900002
2019-03-21T04:58:03.001Z,99.900002
2019-03-21T05:03:05.239Z,99.900002
2019-03-21T05:08:07.581Z,99.900002
2019-03-21T05:13:09.797Z,99.900002
2019-03-21T05:18:12.275Z,99.900002
2019-03-21T05:23:14.471Z,99.900002
2019-03-21T05:28:16.799Z,99.900002
2019-03-21T05:33:19.108Z,99.900002
2019-03-21T05:38:22.747Z,99.900002
2019-03-21T05:43:23.767Z,99.900002
2019-03-21T05:48:25.949Z,99.900002
2019-03-21T05:53:28.278Z,99.900002
2019-03-21T05:58:30.539Z,99.900002
2019-03-21T06:03:32.882Z,99.900002
2019-03-21T06:08:35.400Z,99.900002
2019-03-21T06:13:37.504Z,99.900002
2019-03-21T06:18:39.753Z,99.900002
2019-03-21T06:23:43.204Z,99.900002
2019-03-21T06:28:44.327Z,99.900002
2019-03-21T06:33:46.722Z,99.900002
2019-03-21T06:38:48.898Z,99.900002
2019-03-21T06:43:51.254Z,99.900002
2019-03-21T06:48:53.457Z,99.900002
2019-03-21T06:53:55.834Z,99.900002
2019-03-21T06:58:58.209Z,99.900002
2019-03-21T07:04:07.032Z,99.900002
2019-03-21T07:49:42.308Z,99.900002
2019-03-21T07:54:44.832Z,99.900002
2019-03-21T07:59:56.551Z,99.900002
2019-03-21T08:04:56.659Z,99.900002
2019-03-21T08:09:58.939Z,99.900002
2019-03-21T08:15:01.186Z,99.900002
2019-03-21T08:20:03.488Z,99.900002
2019-03-21T08:25:19.820Z,99.900002
2019-03-21T08:30:08.254Z,99.900002
2019-03-21T08:35:48.946Z,99.900002
2019-03-21T08:40:50.183Z,99.900002
2019-03-21T08:45:54.361Z,99.900002
2019-03-21T08:51:07.346Z,99.900002
2019-03-21T08:55:58.223Z,99.900002
2019-03-21T09:01:00.673Z,99.900002
2019-03-21T09:06:01.566Z,99.900002
2019-03-21T09:11:03.959Z,99.900002
2019-03-21T09:16:06.186Z,99.900002
2019-03-21T09:42:23.566Z,99.900002
2019-03-21T09:47:25.906Z,99.900002
2019-03-21T09:57:31.829Z,99.900002
2019-03-21T10:02:32.864Z,99.900002
2019-03-21T10:07:36.379Z,99.900002
2019-03-21T10:12:37.359Z,99.900002
2019-03-21T10:17:39.669Z,99.900002
2019-03-21T10:22:41.868Z,99.900002
2019-03-21T10:27:44.299Z,99.900002
2019-03-21T10:32:46.588Z,99.900002
2019-03-21T10:37:48.735Z,99.900002
2019-03-21T10:42:51.138Z,97.800003
2019-03-21T11:18:36.381Z,90.900002
2019-03-21T11:29:18.385Z,67.699997
2019-03-21T11:42:06.217Z,63
2019-03-21T12:07:40.888Z,68.099998
2019-03-21T13:23:27.964Z,51.900002
2019-03-21T15:12:39.645Z,43
2019-03-21T15:55:49.659Z,44.700001
2019-03-21T16:00:52.033Z,41.299999
2019-03-21T16:24:21.986Z,44.799999
2019-03-21T16:29:24.377Z,46.200001
2019-03-21T16:34:26.644Z,47.299999
2019-03-21T16:47:37.000Z,49.599998
2019-03-21T16:52:37.866Z,56
2019-03-21T16:57:47.499Z,59.799999
2019-03-21T17:02:44.610Z,64.900002
2019-03-21T17:15:52.916Z,71.599998
2019-03-21T17:20:51.986Z,74.300003
2019-03-21T17:25:54.143Z,76.599998
2019-03-21T17:30:56.489Z,80
2019-03-21T17:35:58.757Z,82.099998
2019-03-21T17:41:01.062Z,83.099998
2019-03-21T17:46:04.506Z,84.699997
2019-03-21T17:51:05.564Z,86.5
2019-03-21T17:56:07.927Z,88.199997
2019-03-21T18:01:10.328Z,93.099998
2019-03-21T18:06:12.603Z,94.699997
2019-03-21T18:11:14.840Z,95.900002
2019-03-21T18:16:18.661Z,96
2019-03-21T18:21:19.341Z,96.900002
2019-03-21T18:26:21.831Z,98.199997
2019-03-21T18:31:23.968Z,99.699997
2019-03-21T18:41:28.501Z,94
2019-03-21T18:46:30.897Z,98.5
2019-03-21T19:03:00.361Z,99.900002
2019-03-21T19:08:00.988Z,99.900002
2019-03-21T19:13:02.301Z,99.900002
2019-03-21T19:18:04.473Z,99.900002
2019-03-21T19:23:07.017Z,99.900002
2019-03-21T19:28:09.110Z,99.900002
2019-03-21T19:34:17.663Z,99.900002
2019-03-21T19:39:49.191Z,99.900002
2019-03-21T19:44:49.369Z,99.900002
2019-03-21T19:49:52.706Z,99.900002
2019-03-21T19:54:55.697Z,99.900002
2019-03-21T19:59:56.306Z,99.900002
2019-03-21T20:12:59.939Z,99.900002
2019-03-21T20:18:00.094Z,99.900002
2019-03-21T20:23:02.502Z,99.900002
2019-03-21T20:28:04.682Z,99.900002
2019-03-21T20:33:07.217Z,99.900002
2019-03-21T20:38:13.833Z,99.900002
2019-03-21T20:43:29.164Z,99.900002
2019-03-21T20:48:13.881Z,99.900002
2019-03-21T20:53:16.171Z,99.900002
2019-03-21T20:58:18.569Z,99.900002
2019-03-21T21:03:22.760Z,99.900002
2019-03-21T21:08:23.117Z,99.900002
2019-03-21T21:13:25.367Z,99.900002
2019-03-21T21:20:03.723Z,99.900002
2019-03-21T21:25:03.991Z,99.900002
2019-03-21T21:36:33.095Z,99.900002
2019-03-21T21:52:24.194Z,99.900002
2019-03-21T21:57:23.643Z,99.900002
2019-03-21T22:02:26.137Z,99.900002
2019-03-21T22:07:27.250Z,99.900002
2019-03-21T22:12:30.984Z,99.900002
2019-03-21T22:17:31.645Z,99.900002
2019-03-21T22:22:33.901Z,99.900002
2019-03-21T22:27:36.429Z,99.900002
2019-03-21T22:32:38.511Z,99.900002
2019-03-21T22:37:41.041Z,99.900002
2019-03-21T22:42:43.319Z,99.900002
2019-03-21T22:47:45.499Z,99.900002
2019-03-21T22:52:47.645Z,99.900002
2019-03-21T22:57:49.963Z,99.900002
2019-03-21T23:02:52.357Z,99.900002
2019-03-21T23:07:54.682Z,99.900002
2019-03-21T23:12:56.792Z,99.900002
2019-03-21T23:17:59.154Z,99.900002
2019-03-21T23:23:01.786Z,99.900002
2019-03-21T23:28:03.948Z,99.900002
2019-03-21T23:33:06.239Z,99.900002
2019-03-21T23:38:08.320Z,99.900002
2019-03-21T23:43:10.619Z,99.900002
2019-03-21T23:48:14.809Z,99.900002
2019-03-21T23:53:15.184Z,99.900002
2019-03-21T23:58:17.460Z,99.900002
